Arnos Vale, Saint Vincent

4:43 AM AST on February 01, 2015 (GMT -0400)
Plenty Wind, Hope Estate, Bequia | Change Station
CLOSE
Current Station
Personal Weather Station
Location: Saint Vincent And The Grenadines,
Elevation: 240 ft
Nearby Weather Stations

Elev 240 ft 13.01 °N, 61.22 °W | Updated 1 second ago

Scattered Clouds
Scattered Clouds
77.6 °F
Feels Like 80 °F
N
16.8
Wind Variable Wind from ENE
Gusts 23.0 mph

Today
High -- | Low -- °F
--% Chance of Precip.
Yesterday
High -- | Low -- °F
Precip. -- in
6:31 AM 6:05 PM
Waxing Gibbous, 94% visible
Pressure 29.98 in
Visibility 6.2 miles
Clouds Few 2200 ft
Scattered Clouds 28000 ft
Heat Index 80 °F
Dew Point 72 °F
Humidity 83%
Rainfall 0.00 in
Snow Depth Not available.
UV 0 out of 12
Pollen Not available.
Air Quality Not available.
Flu Activity Not available.
METAR TLPL 010800Z 07007KT 9999 FEW022 SCT280 25/21 Q1015 NOSIG

More Conditions Fewer Conditions

Pressure 29.98 in
Visibility 6.2 miles
Clouds Few 2200 ft
Scattered Clouds 28000 ft
Heat Index 80 °F
Dew Point 72 °F
Humidity 83%
Rainfall 0.00 in
Snow Depth Not available.
UV 0 out of 12
Pollen Not available.
Air Quality Not available.
Flu Activity Not available.
METAR TLPL 010800Z 07007KT 9999 FEW022 SCT280 25/21 Q1015 NOSIG

More Conditions Fewer Conditions

10-Day Weather Forecast

Almanac

Astronomy

Feb. 01, 2015 Rise Set
Actual Time
Civil Twilight
Nautical Twilight
Astronomical Twilight
Moon
Length of Visible Light
Length of Day
Tomorrow will be .
, % of the Moon is Illuminated

Today's Extremes

Country Highs Country Lows

Community

WunderPhotos

Upload Photos

1,792,338 photos uploaded!

WunderBlogs® & News

Nearby

Air Quality

  Air Quality AQ Index Pollutant
Not available.

Snow Depth

Station Depth Elevation

Earthquake Activity

City Distance Mag. Time & Date
Minimum magnitude displayed is 2.5.

Coastal Water Temperatures

Place Temperature

Nearby Weather Stations